Latest Weather Observations for Perth Airport

IDW60901

Issued at 5:11 am WST Wednesday 22 February 2017 (issued every 10 minutes, with the page automatically refreshed every 10 minutes)

About weather observations | Map of Perth area stations | Latest observations for Perth area | Other Formats
Station Details ID: 009021 Name: PERTH AIRPORT Lat: -31.93 Lon: 115.98 Height: 15.4 m
Data from the previous 72 hours. | See also: Recent months at Perth Airport
Date/Time
WST
Temp
°C
App
Temp
°C
Dew
Point
°C
Rel
Hum
%
Delta-T
°C
Wind Press
QNH
hPa
Press
MSL
hPa
Rain since
9am
mm
Dir  Spd
km/h
Gust
km/h
Spd
kts
Gust
kts
22/05:00am 8.5 6.5 7.2 91 0.6 N 7 9 4 5 1019.9 1019.8 0.2
22/04:30am 8.8 6.1 7.3 90 0.7 NNE 11 11 6 6 1019.7 1019.6 0.2
22/04:00am 8.6 7.2 7.1 90 0.7 ENE 4 6 2 3 1019.6 1019.5 0.2
22/03:30am 9.0 5.9 7.3 89 0.8 SSE 13 15 7 8 1019.6 1019.5 0.2
22/03:00am 9.5 6.8 7.4 87 1.0 S 11 11 6 6 1019.4 1019.3 0.2
22/02:30am 11.0 8.4 7.9 81 1.5 S 11 13 6 7 1019.3 1019.2 0.2
22/02:00am 10.9 8.3 7.8 81 1.5 SSW 11 13 6 7 1019.2 1019.1 0.2
22/01:30am 10.5 7.6 8.2 86 1.1 S 13 15 7 8 1019.1 1019.0 0.2
22/01:00am 12.3 10.3 8.5 77 1.9 SSW 9 13 5 7 1019.1 1019.0 0.2
22/12:30am 12.5 10.2 8.9 79 1.8 S 11 13 6 7 1019.2 1019.1 0.2
22/12:00am 13.9 11.1 8.5 70 2.7 S 13 15 7 8 1019.0 1018.9 0.2
 
Date/Time
WST
Temp
°C
App
Temp
°C
Dew
Point
°C
Rel
Hum
%
Delta-T
°C
Wind Press
QNH
hPa
Press
MSL
hPa
Rain since
9am
mm
Dir  Spd
km/h
Gust
km/h
Spd
kts
Gust
kts
21/11:30pm 14.7 10.7 8.1 64 3.3 SSW 19 20 10 11 1019.1 1019.0 0.2
21/11:00pm 14.9 11.6 8.1 64 3.4 SSW 15 20 8 11 1019.1 1019.0 0.2
21/10:30pm 13.5 11.0 8.3 71 2.6 SW 11 15 6 8 1019.0 1018.9 0.2
21/10:00pm 15.3 12.9 8.8 65 3.3 SSW 11 13 6 7 1018.9 1018.8 0.2
21/09:30pm 16.4 13.4 7.6 56 4.4 SSW 13 17 7 9 1018.8 1018.7 0.2
21/09:00pm 16.9 13.4 7.0 52 4.9 SSW 15 19 8 10 1018.6 1018.5 0.2
21/08:30pm 17.2 13.3 7.2 51 5.0 SSW 17 26 9 14 1018.4 1018.3 0.2
21/08:00pm 17.3 12.5 7.3 52 5.0 SW 22 28 12 15 1017.9 1017.8 0.2
21/07:30pm 17.7 11.4 7.3 50 5.2 SSW 30 37 16 20 1017.6 1017.5 0.2
21/07:00pm 18.0 12.4 8.7 54 4.8 SW 28 37 15 20 1017.1 1017.0 0.2
21/06:30pm 18.5 11.6 7.4 48 5.6 SW 33 43 18 23 1016.8 1016.7 0.2
21/06:00pm 19.0 12.4 7.9 48 5.7 SW 32 46 17 25 1016.4 1016.3 0.2
21/05:52pm 19.4 12.7 7.4 45 6.1 SSW 32 39 17 21 1016.3 1016.2 0.2
21/05:30pm 19.4 12.2 7.7 46 6.0 SW 35 46 19 25 1015.9 1015.8 0.2
21/05:00pm 21.1 13.8 7.3 41 7.1 SW 35 46 19 25 1015.6 1015.5 0.2
21/04:30pm 21.5 14.1 6.8 38 7.5 SW 35 48 19 26 1015.3 1015.2 0.2
21/04:00pm 20.9 12.0 5.3 36 7.7 SW 41 54 22 29 1015.4 1015.3 0.2
21/03:30pm 21.4 12.8 4.6 33 8.2 SW 39 57 21 31 1015.4 1015.3 0.2
21/03:07pm 22.0 13.1 5.3 33 8.3 SW 41 59 22 32 1015.5 1015.4 0.2
21/03:00pm 22.4 13.7 6.0 34 8.3 SW 41 50 22 27 1015.4 1015.3 0.2
21/02:30pm 21.8 13.7 5.3 34 8.2 SW 37 52 20 28 1015.5 1015.4 0.2
21/02:25pm 21.8 12.9 5.0 33 8.3 SW 41 54 22 29 1015.6 1015.5 0.2
21/02:00pm 21.7 13.4 6.3 36 7.8 SW 39 54 21 29 1015.5 1015.4 0.2
21/01:30pm 22.1 13.9 4.6 32 8.6 SW 37 54 20 29 1015.3 1015.2 0.2
21/01:00pm 21.8 13.9 4.4 32 8.5 SW 35 57 19 31 1015.3 1015.2 0.2
21/12:30pm 21.8 14.3 6.4 36 7.8 SSW 35 50 19 27 1015.2 1015.1 0.2
21/12:00pm 21.4 14.3 6.4 37 7.6 SW 33 52 18 28 1015.3 1015.2 0.0
21/11:45am 21.1 13.8 4.4 33 8.1 SW 32 52 17 28 1015.3 1015.2 0.0
21/11:30am 21.9 13.8 5.2 33 8.3 SW 37 48 20 26 1015.1 1015.0 0.0
21/11:00am 21.2 12.8 3.7 31 8.4 SW 37 50 20 27 1015.2 1015.1 0.0
21/10:39am 21.7 13.3 5.4 34 8.1 SW 39 57 21 31 1015.2 1015.1 0.0
21/10:30am 21.0 12.7 6.0 37 7.5 SW 39 54 21 29 1015.2 1015.1 0.0
21/10:00am 20.8 12.8 7.6 42 6.8 SW 39 52 21 28 1015.1 1015.0 0.0
21/09:30am 20.0 12.7 8.7 48 5.9 SW 37 56 20 30 1014.8 1014.7 0.0
21/09:00am 19.4 11.3 10.1 55 5.0 SW 43 56 23 30 1014.3 1014.2 0.2
21/08:47am 19.5 13.2 10.9 57 4.7 SW 35 54 19 29 1014.1 1014.0 0.2
21/08:30am 18.9 12.8 11.8 63 3.9 SW 35 46 19 25 1013.8 1013.7 0.2
21/08:15am 18.7 14.5 13.4 71 3.0 SW 28 54 15 29 1013.6 1013.5 0.2
21/08:00am 17.8 15.7 14.7 82 1.8 SW 19 28 10 15 1013.4 1013.3 0.2
21/07:30am 17.1 13.9 14.3 83 1.6 SW 24 33 13 18 1013.2 1013.1 0.2
21/07:00am 16.4 10.2 13.7 84 1.5 SW 39 57 21 31 1012.8 1012.7 0.2
21/06:55am 17.2 12.0 14.6 85 1.5 SW 35 57 19 31 1012.8 1012.7 0.2
21/06:50am 18.0 13.6 14.0 77 2.3 SW 30 41 16 22 1012.4 1012.3 0.0
21/06:33am 18.1 15.2 13.9 76 2.4 WSW 22 43 12 23 1012.2 1012.1 0.0
21/06:30am 18.3 15.9 13.9 75 2.5 W 19 30 10 16 1012.2 1012.1 0.0
21/06:00am 18.5 13.9 12.2 66 3.5 W 28 39 15 21 1011.9 1011.8 0.0
21/05:30am 18.9 15.2 10.1 56 4.7 W 20 32 11 17 1011.7 1011.6 0.0
21/05:00am 18.4 15.0 10.4 59 4.3 W 19 30 10 16 1011.6 1011.5 0.0
21/04:30am 18.4 15.5 11.0 62 4.0 W 17 22 9 12 1011.4 1011.3 0.0
21/04:00am 18.4 15.3 10.4 59 4.3 W 17 28 9 15 1011.2 1011.1 0.0
21/03:30am 18.8 15.4 10.7 59 4.4 W 19 30 10 16 1011.4 1011.3 0.0
21/03:00am 18.9 15.8 9.0 52 5.2 W 15 28 8 15 1011.5 1011.4 0.0
21/02:30am 18.2 15.6 10.6 61 4.1 SW 15 19 8 10 1011.7 1011.6 0.0
21/02:00am 19.0 13.9 10.5 58 4.6 SW 28 33 15 18 1012.1 1012.0 0.0
21/01:30am 18.9 15.4 10.3 57 4.6 SW 19 24 10 13 1012.2 1012.1 0.0
21/01:00am 18.9 15.0 9.4 54 5.0 SW 20 30 11 16 1012.3 1012.2 0.0
21/12:30am 19.0 15.4 10.7 58 4.5 SW 20 30 11 16 1012.5 1012.4 0.0
21/12:00am 19.0 15.3 10.2 56 4.7 SW 20 28 11 15 1012.8 1012.7 0.0
 
Date/Time
WST
Temp
°C
App
Temp
°C
Dew
Point
°C
Rel
Hum
%
Delta-T
°C
Wind Press
QNH
hPa
Press
MSL
hPa
Rain since
9am
mm
Dir  Spd
km/h
Gust
km/h
Spd
kts
Gust
kts
20/11:30pm 19.2 14.0 10.3 56 4.8 SW 28 33 15 18 1013.0 1012.9 0.0
20/11:00pm 19.0 15.0 10.5 58 4.6 SW 22 30 12 16 1012.9 1012.8 0.0
20/10:30pm 19.2 15.8 10.5 57 4.7 SW 19 28 10 15 1012.9 1012.8 0.0
20/10:00pm 19.7 15.8 10.9 57 4.8 SW 22 32 12 17 1013.4 1013.3 0.0
20/09:30pm 19.9 16.5 12.6 63 4.1 SW 22 37 12 20 1013.7 1013.6 0.0
20/09:00pm 20.0 15.1 12.7 63 4.1 SW 30 39 16 21 1013.5 1013.4 0.0
20/08:30pm 20.3 16.1 13.5 65 3.9 WSW 28 35 15 19 1013.1 1013.0 0.0
20/08:00pm 20.2 16.2 14.0 67 3.6 SW 28 33 15 18 1012.6 1012.5 0.0
20/07:30pm 20.3 16.4 14.3 68 3.5 SW 28 35 15 19 1012.0 1011.9 0.0
20/07:00pm 20.7 16.1 14.5 67 3.6 SW 32 37 17 20 1011.7 1011.6 0.0
20/06:30pm 21.0 16.1 13.7 63 4.2 SW 32 41 17 22 1011.4 1011.3 0.0
20/06:00pm 21.5 16.2 13.1 58 4.8 SW 33 44 18 24 1011.2 1011.1 0.0
20/05:30pm 23.0 17.8 12.7 52 5.9 SW 32 41 17 22 1010.9 1010.8 0.0
20/05:00pm 23.6 19.2 12.8 50 6.2 WSW 28 35 15 19 1010.6 1010.5 0.0
20/04:30pm 24.3 19.9 12.9 49 6.6 WSW 28 35 15 19 1010.6 1010.5 0.0
20/04:00pm 24.5 20.9 13.1 49 6.6 SW 24 32 13 17 1010.3 1010.2 0.0
20/03:30pm 24.6 20.9 12.6 47 6.9 SW 24 35 13 19 1010.4 1010.3 0.0
20/03:00pm 24.2 19.9 12.1 46 6.9 SW 26 33 14 18 1010.6 1010.5 0.0
20/02:30pm 25.0 20.8 12.5 45 7.2 SW 26 32 14 17 1011.0 1010.9 0.0
20/02:00pm 24.8 20.8 12.9 47 6.9 WSW 26 33 14 18 1011.4 1011.3 0.0
20/01:30pm 25.0 21.3 14.0 50 6.5 W 26 35 14 19 1011.9 1011.8 0.0
20/01:00pm 25.3 21.8 14.6 51 6.4 W 26 32 14 17 1012.0 1011.9 0.0
20/12:30pm 25.8 22.4 14.8 50 6.6 W 26 33 14 18 1012.2 1012.1 0.0
20/12:00pm 26.5 23.2 14.1 46 7.4 W 24 32 13 17 1012.1 1012.0 0.0
20/11:30am 25.9 23.8 13.5 46 7.3 W 17 26 9 14 1012.5 1012.4 0.0
20/11:00am 24.8 22.1 11.6 43 7.5 SW 17 20 9 11 1013.0 1012.9 0.0
20/10:30am 24.3 23.6 14.3 53 5.9 SW 11 19 6 10 1013.3 1013.2 0.0
20/10:00am 23.5 22.1 14.5 57 5.3 SW 15 22 8 12 1013.4 1013.3 0.0
20/09:30am 23.0 20.9 14.7 59 4.9 SW 19 26 10 14 1013.5 1013.4 0.0
20/09:00am 22.2 20.1 14.6 62 4.5 SSW 19 26 10 14 1013.4 1013.3 0.0
20/08:30am 21.4 19.5 15.2 68 3.7 SSW 19 26 10 14 1013.2 1013.1 0.0
20/08:00am 20.8 18.0 15.4 71 3.2 SSW 24 32 13 17 1013.1 1013.0 0.0
20/07:30am 20.5 18.2 15.8 74 2.8 SSW 22 30 12 16 1013.1 1013.0 0.0
20/07:00am 20.3 17.5 16.3 78 2.4 SSW 26 32 14 17 1013.0 1012.9 0.0
20/06:30am 20.5 19.5 17.6 83 1.8 SSW 19 22 10 12 1012.9 1012.8 0.0
20/06:17am 20.4 19.9 17.8 85 1.6 SW 17 22 9 12 1012.8 1012.7 0.0
20/06:00am 20.3 19.8 17.9 86 1.5 SSW 17 26 9 14 1012.6 1012.5 0.0
20/05:30am 20.5 20.0 17.9 85 1.6 SSW 17 20 9 11 1012.4 1012.3 0.0
20/05:00am 20.4 21.0 17.6 84 1.7 SW 11 13 6 7 1012.3 1012.2 0.0
20/04:30am 20.5 21.7 18.2 87 1.4 SSW 9 13 5 7 1012.3 1012.2 0.0
20/04:00am 20.7 21.6 18.3 86 1.5 WSW 11 15 6 8 1012.1 1012.0 0.0
20/03:30am 20.4 21.4 17.8 85 1.6 WSW 9 11 5 6 1011.8 1011.7 0.0
20/03:00am 20.9 22.0 18.0 83 1.8 SSW 9 11 5 6 1011.7 1011.6 0.0
20/02:30am 21.3 21.6 17.9 81 2.1 SW 13 17 7 9 1011.9 1011.8 0.0
20/02:00am 21.5 22.2 18.0 80 2.2 WSW 11 15 6 8 1012.1 1012.0 0.0
20/01:30am 21.9 21.9 18.0 78 2.4 SW 15 19 8 10 1012.2 1012.1 0.0
20/01:00am 22.3 21.9 18.1 77 2.6 WSW 17 19 9 10 1012.5 1012.4 0.0
20/12:30am 22.7 22.5 17.5 72 3.2 WSW 15 19 8 10 1012.9 1012.8 0.0
20/12:00am 23.0 23.3 17.0 69 3.7 WSW 11 15 6 8 1012.8 1012.7 0.0
 
Date/Time
WST
Temp
°C
App
Temp
°C
Dew
Point
°C
Rel
Hum
%
Delta-T
°C
Wind Press
QNH
hPa
Press
MSL
hPa
Rain since
9am
mm
Dir  Spd
km/h
Gust
km/h
Spd
kts
Gust
kts
19/11:30pm 23.3 23.1 16.6 66 4.1 WSW 13 15 7 8 1012.8 1012.7 0.0
19/11:00pm 23.6 23.2 16.2 63 4.5 WSW 13 15 7 8 1012.8 1012.7 0.0
19/10:30pm 24.2 23.0 16.0 60 5.0 WSW 17 22 9 12 1012.9 1012.8 0.0
19/10:00pm 24.7 23.7 15.6 57 5.5 WSW 15 19 8 10 1012.9 1012.8 0.0
19/09:30pm 25.0 24.2 16.2 58 5.4 WSW 15 19 8 10 1012.9 1012.8 0.0
19/09:00pm 25.4 24.9 16.8 59 5.3 WSW 15 19 8 10 1012.7 1012.6 0.0
19/08:30pm 25.9 25.6 18.2 62 4.9 W 17 20 9 11 1012.4 1012.3 0.0
19/08:00pm 26.5 26.9 18.1 60 5.3 W 13 17 7 9 1012.1 1012.0 0.0
19/07:30pm 26.9 27.6 18.8 61 5.2 W 13 19 7 10 1011.9 1011.8 0.0
19/07:00pm 27.4 27.6 19.4 61 5.2 WSW 17 19 9 10 1011.5 1011.4 0.0
19/06:30pm 28.8 28.9 20.0 59 5.8 WSW 19 24 10 13 1011.2 1011.1 0.0
19/06:00pm 30.4 30.2 19.4 51 7.2 W 19 26 10 14 1011.1 1011.0 0.0
19/05:30pm 32.2 31.9 18.3 43 9.0 W 17 20 9 11 1010.9 1010.8 0.0
19/05:00pm 33.3 33.5 17.6 39 10.1 WNW 13 19 7 10 1010.8 1010.7 0.0
19/04:30pm 33.5 33.3 17.5 38 10.3 W 15 24 8 13 1011.0 1010.9 0.0
19/04:00pm 33.4 32.2 18.3 40 9.8 WNW 22 32 12 17 1011.2 1011.1 0.0
19/03:30pm 35.0 32.9 18.1 36 11.0 WNW 26 39 14 21 1011.2 1011.1 0.0
19/03:00pm 34.9 32.9 17.4 35 11.3 W 24 32 13 17 1011.4 1011.3 0.0
19/02:30pm 34.7 33.0 17.3 35 11.2 WNW 22 32 12 17 1011.7 1011.6 0.0
19/02:00pm 34.7 31.1 17.1 35 11.3 WNW 32 41 17 22 1011.9 1011.8 0.0
19/01:30pm 35.2 30.9 13.1 26 13.4 WNW 28 37 15 20 1012.0 1011.9 0.0
19/01:18pm 36.4 31.9 12.6 24 14.4 W 28 46 15 25 1011.8 1011.7 0.0
19/01:00pm 38.0 35.5 14.0 24 14.9 NNW 20 32 11 17 1011.9 1011.8 0.0
19/12:30pm 36.7 34.9 13.3 24 14.3 N 15 28 8 15 1012.3 1012.2 0.0
19/12:00pm 35.5 33.9 12.9 25 13.7 NNE 13 26 7 14 1012.7 1012.6 0.0
19/11:30am 34.3 31.9 12.6 27 13.0 NNE 17 28 9 15 1013.4 1013.3 0.0
19/11:00am 33.8 30.5 12.8 28 12.6 NE 22 30 12 16 1014.0 1013.9 0.0
19/10:30am 33.0 29.2 12.3 28 12.3 NNE 24 32 13 17 1014.3 1014.2 0.0
19/10:00am 32.0 27.1 11.2 28 12.1 NNE 28 35 15 19 1014.3 1014.2 0.0
19/09:30am 31.6 26.6 11.1 28 11.9 NE 28 35 15 19 1014.5 1014.4 0.0
19/09:00am 29.6 26.6 11.9 33 10.3 ENE 19 24 10 13 1014.5 1014.4 0.0
19/08:30am 27.6 23.7 10.8 35 9.5 ENE 22 28 12 15 1014.9 1014.8 0.0
19/08:00am 25.8 21.3 9.9 36 8.8 ENE 24 35 13 19 1015.1 1015.0 0.0
19/07:30am 24.9 20.1 9.0 36 8.6 ENE 24 37 13 20 1015.1 1015.0 0.0
19/07:00am 23.8 18.5 8.4 37 8.2 ENE 26 33 14 18 1014.9 1014.8 0.0
19/06:30am 23.1 17.8 8.4 39 7.8 ENE 26 30 14 16 1014.9 1014.8 0.0
19/06:00am 23.1 18.1 7.9 37 8.0 ENE 24 30 13 16 1014.6 1014.5 0.0
19/05:30am 23.1 17.2 7.6 37 8.1 ENE 28 35 15 19 1014.5 1014.4 0.0

Latest Capital City Observations: Canberra | Sydney | Melbourne | Brisbane | Adelaide | Perth | Hobart | Darwin

Other Formats:

Comma delimited format used in spreadsheet applications
http://www.bom.gov.au/fwo/IDW60901/IDW60901.94610.axf

JavaScript Object Notation format (JSON) in row-major order
http://www.bom.gov.au/fwo/IDW60901/IDW60901.94610.json